Time;durP1;ratioP1;P1;durP2;ratioP2;P2;SDS_P1;SDS_P2;PMS_P1;PMS_P2;Temp;Humidity;BMP_temperature;BMP_pressure;BME280_temperature;BME280_humidity;BME280_pressure;Samples;Min_cycle;Max_cycle;Signal;HPM_P1;HPM_P2
2023/04/23 00:01:01;;;;;;;;;;;;;;;15.03;59.49;96535.38;4220490;28;5826;-73
2023/04/23 00:03:09;;;;;;;;;;;;;;;15.00;59.75;96527.88;4218938;28;5081;-73
2023/04/23 00:05:13;;;;;;;;;;;;;;;15.02;59.80;96531.09;4220444;28;5676;-72
2023/04/23 00:07:20;;;;;;;;;;;;;;;15.02;60.00;96524.97;4219175;28;5612;-73
2023/04/23 00:09:25;;;;;;;;;;;;;;;15.00;59.91;96522.53;4220110;28;5151;-72
2023/04/23 00:11:28;;;;;;;;;;;;;;;14.99;60.17;96526.25;4220286;28;5663;-72
2023/04/23 00:13:33;;;;;;;;;;;;;;;14.99;60.24;96533.41;4220311;28;5714;-72
2023/04/23 00:15:37;;;;;;;;;;;;;;;14.96;60.45;96526.69;4220198;28;5663;-71
2023/04/23 00:17:39;;;;;;;;;;;;;;;14.94;60.46;96526.09;4220290;28;5675;-72
2023/04/23 00:19:42;;;;;;;;;;;;;;;14.92;60.60;96522.84;4220040;28;5696;-72
2023/04/23 00:21:45;;;;;;;;;;;;;;;14.89;60.86;96519.84;4219947;28;5674;-73
2023/04/23 00:23:48;;;;;;;;;;;;;;;14.86;60.93;96510.47;4219819;28;5762;-73
2023/04/23 00:25:51;;;;;;;;;;;;;;;14.88;61.21;96520.88;4220137;28;5742;-72
2023/04/23 00:27:53;;;;;;;;;;;;;;;14.87;61.07;96521.94;4219956;28;5766;-72
2023/04/23 00:29:58;;;;;;;;;;;;;;;14.79;61.49;96515.88;4219838;28;5667;-72
2023/04/23 00:32:02;;;;;;;;;;;;;;;14.77;61.71;96511.81;4219958;28;5683;-73
2023/04/23 00:34:05;;;;;;;;;;;;;;;14.78;61.43;96513.44;4220040;28;5684;-73
2023/04/23 00:36:08;;;;;;;;;;;;;;;14.80;61.54;96508.69;4219112;28;5608;-73
2023/04/23 00:38:11;;;;;;;;;;;;;;;14.77;61.86;96514.47;4219782;28;5683;-72
2023/04/23 00:40:14;;;;;;;;;;;;;;;14.78;61.75;96514.25;4220143;28;5757;-73
2023/04/23 00:42:17;;;;;;;;;;;;;;;14.78;61.99;96513.44;4220156;28;5691;-74
2023/04/23 00:44:20;;;;;;;;;;;;;;;14.78;62.07;96518.75;4219818;28;5678;-73
2023/04/23 00:46:25;;;;;;;;;;;;;;;14.73;62.24;96511.47;4219529;28;5667;-73
2023/04/23 00:48:29;;;;;;;;;;;;;;;14.75;62.36;96516.56;4219686;28;5782;-73
2023/04/23 00:50:31;;;;;;;;;;;;;;;14.74;62.45;96517.59;4219184;28;5742;-73
2023/04/23 00:52:34;;;;;;;;;;;;;;;14.75;62.66;96513.91;4219572;28;5766;-73
2023/04/23 00:54:37;;;;;;;;;;;;;;;14.76;62.51;96526.16;4210946;28;5779;-72
2023/04/23 00:56:40;;;;;;;;;;;;;;;14.73;62.65;96523.97;4219725;28;5675;-72
2023/04/23 00:58:44;;;;;;;;;;;;;;;14.75;62.59;96521.88;4219414;28;5664;-73
2023/04/23 01:00:48;;;;;;;;;;;;;;;14.73;62.91;96511.47;4219403;28;6403;-73
2023/04/23 01:02:53;;;;;;;;;;;;;;;14.71;62.97;96518.03;4219546;28;5680;-73
2023/04/23 01:04:58;;;;;;;;;;;;;;;14.74;63.17;96522.94;4219084;28;5987;-74
2023/04/23 01:07:01;;;;;;;;;;;;;;;14.75;63.28;96521.88;4219392;28;7021;-73
2023/04/23 01:09:05;;;;;;;;;;;;;;;14.76;63.25;96513.66;4218931;28;5762;-73
2023/04/23 01:11:08;;;;;;;;;;;;;;;14.78;63.35;96516.09;4219168;28;5679;-73
2023/04/23 01:13:12;;;;;;;;;;;;;;;14.79;63.40;96515.06;4218217;28;5708;-74
2023/04/23 01:15:17;;;;;;;;;;;;;;;14.77;63.35;96512.63;4218917;28;5679;-73
2023/04/23 01:17:21;;;;;;;;;;;;;;;14.77;63.55;96517.13;4219210;28;5674;-74
2023/04/23 01:19:26;;;;;;;;;;;;;;;14.76;63.57;96503.03;4218876;28;5667;-72
2023/04/23 01:21:31;;;;;;;;;;;;;;;14.76;63.78;96502.22;4219403;28;5687;-72
2023/04/23 01:23:35;;;;;;;;;;;;;;;14.80;63.61;96508.69;4219173;28;5674;-72
2023/04/23 01:25:38;;;;;;;;;;;;;;;14.75;63.65;96509.38;4219328;28;5780;-72
2023/04/23 01:27:42;;;;;;;;;;;;;;;14.76;63.62;96510.19;4218833;28;5790;-72
2023/04/23 01:29:45;;;;;;;;;;;;;;;14.76;63.70;96505.69;4218994;28;5882;-72
2023/04/23 01:31:49;;;;;;;;;;;;;;;14.80;63.79;96511.34;4219021;28;5659;-72
2023/04/23 01:33:54;;;;;;;;;;;;;;;14.81;64.04;96507.66;4219056;28;5089;-72
2023/04/23 01:35:57;;;;;;;;;;;;;;;14.83;63.87;96513.56;4217717;28;5686;-73
2023/04/23 01:38:02;;;;;;;;;;;;;;;14.77;64.02;96507.31;4218872;28;5680;-72
2023/04/23 01:40:08;;;;;;;;;;;;;;;14.73;64.22;96502.69;4218876;28;5672;-73
2023/04/23 01:42:11;;;;;;;;;;;;;;;14.68;64.21;96507.84;4219067;28;5675;-72
2023/04/23 01:44:14;;;;;;;;;;;;;;;14.67;64.37;96501.72;4218206;28;5676;-72
2023/04/23 01:46:17;;;;;;;;;;;;;;;14.68;64.50;96508.66;4219049;28;5871;-72
2023/04/23 01:48:20;;;;;;;;;;;;;;;14.69;64.52;96504.16;4218363;28;5089;-72
2023/04/23 01:50:25;;;;;;;;;;;;;;;14.68;64.58;96503.34;4218195;28;5685;-72
2023/04/23 01:52:28;;;;;;;;;;;;;;;14.69;64.50;96504.16;4218608;28;5806;-73
2023/04/23 01:54:30;;;;;;;;;;;;;;;14.68;64.57;96508.66;4218337;28;5069;-74
2023/04/23 01:56:35;;;;;;;;;;;;;;;14.64;64.91;96504.84;4218612;28;5659;-74
2023/04/23 01:58:38;;;;;;;;;;;;;;;14.62;64.62;96504.25;4218239;28;6379;-74
2023/04/23 02:00:40;;;;;;;;;;;;;;;14.58;64.97;96505.72;4218113;28;5833;-73
2023/04/23 02:02:44;;;;;;;;;;;;;;;14.60;64.89;96497.50;4218457;28;5840;-73
2023/04/23 02:04:48;;;;;;;;;;;;;;;14.62;65.02;96503.44;4218525;28;5737;-73
2023/04/23 02:06:51;;;;;;;;;;;;;;;14.64;65.00;96506.69;4218321;28;7783;-73
2023/04/23 02:08:54;;;;;;;;;;;;;;;14.63;65.04;96511.19;4216937;28;5846;-73
2023/04/23 02:10:57;;;;;;;;;;;;;;;14.62;65.10;96512.25;4218295;28;5826;-73
2023/04/23 02:13:02;;;;;;;;;;;;;;;14.62;65.07;96514.09;4215844;28;5663;-73
2023/04/23 02:15:07;;;;;;;;;;;;;;;14.62;65.14;96514.91;4216449;28;5686;-73
2023/04/23 02:17:11;;;;;;;;;;;;;;;14.62;65.13;96504.25;4218477;28;5766;-74
2023/04/23 02:19:15;;;;;;;;;;;;;;;14.65;65.05;96505.66;4216883;28;5787;-73
2023/04/23 02:21:18;;;;;;;;;;;;;;;14.66;65.02;96505.41;4215199;28;5671;-74
2023/04/23 02:23:21;;;;;;;;;;;;;;;14.68;65.25;96494.53;4217869;28;5671;-74
2023/04/23 02:25:24;;;;;;;;;;;;;;;14.68;65.15;96491.88;4218329;28;5758;-75
2023/04/23 02:27:27;;;;;;;;;;;;;;;14.70;65.03;96492.47;4218393;28;5668;-74
2023/04/23 02:29:31;;;;;;;;;;;;;;;14.71;65.13;96492.22;4218161;28;5677;-74
2023/04/23 02:31:34;;;;;;;;;;;;;;;14.71;64.96;96486.09;4218121;28;5662;-74
2023/04/23 02:33:37;;;;;;;;;;;;;;;14.68;65.18;96486.56;4218047;28;5734;-73
2023/04/23 02:35:39;;;;;;;;;;;;;;;14.64;65.14;96485.41;4218205;28;5682;-73
2023/04/23 02:37:42;;;;;;;;;;;;;;;14.64;65.22;96482.75;4217863;28;5680;-73
2023/04/23 02:39:45;;;;;;;;;;;;;;;14.64;65.13;96474.75;4218004;28;5647;-73
2023/04/23 02:41:48;;;;;;;;;;;;;;;14.64;65.13;96469.44;4218114;28;5679;-74
2023/04/23 02:43:51;;;;;;;;;;;;;;;14.63;65.29;96467.81;4217945;28;5762;-74
2023/04/23 02:45:55;;;;;;;;;;;;;;;14.63;65.21;96470.47;4218113;28;5844;-74
2023/04/23 02:47:58;;;;;;;;;;;;;;;14.65;65.16;96460.41;4217924;28;6508;-74
2023/04/23 02:50:04;;;;;;;;;;;;;;;14.64;65.28;96459.59;4217930;28;5829;-74
2023/04/23 02:52:07;;;;;;;;;;;;;;;14.66;65.27;96460.19;4217956;28;5101;-74
2023/04/23 02:54:10;;;;;;;;;;;;;;;14.63;65.33;96455.31;4217603;28;5667;-75
2023/04/23 02:56:13;;;;;;;;;;;;;;;14.65;65.44;96450.59;4217767;28;5679;-74
2023/04/23 02:58:16;;;;;;;;;;;;;;;14.66;65.22;96446.88;4217718;28;5699;-74
2023/04/23 03:00:19;;;;;;;;;;;;;;;14.68;65.39;96450.13;4217919;28;6338;-73
2023/04/23 03:02:23;;;;;;;;;;;;;;;14.67;65.51;96447.69;4217940;28;5667;-73
2023/04/23 03:04:27;;;;;;;;;;;;;;;14.70;65.36;96457.88;4217879;28;5787;-74
2023/04/23 03:06:30;;;;;;;;;;;;;;;14.71;65.47;96443.53;4217674;28;5699;-74
2023/04/23 03:08:33;;;;;;;;;;;;;;;14.71;65.44;96444.34;4217493;28;5675;-73
2023/04/23 03:10:36;;;;;;;;;;;;;;;14.73;65.28;96446.81;4217461;28;5632;-73
2023/04/23 03:12:39;;;;;;;;;;;;;;;14.73;65.33;96441.47;4216850;28;5813;-74
2023/04/23 03:14:42;;;;;;;;;;;;;;;14.72;65.58;96442.50;4217719;28;5692;-74
2023/04/23 03:16:45;;;;;;;;;;;;;;;14.72;65.30;96445.16;4217543;28;5743;-73
2023/04/23 03:18:49;;;;;;;;;;;;;;;14.71;65.61;96440.88;4217481;28;5704;-74
2023/04/23 03:20:52;;;;;;;;;;;;;;;14.74;65.55;96437.78;4217407;28;6290;-74
2023/04/23 03:22:55;;;;;;;;;;;;;;;14.75;65.41;96439.41;4216159;28;5675;-74
2023/04/23 03:24:58;;;;;;;;;;;;;;;14.74;65.59;96441.25;4203835;28;5751;-73
2023/04/23 03:27:01;;;;;;;;;;;;;;;14.76;65.38;96441.81;4216816;28;5867;-74
2023/04/23 03:29:05;;;;;;;;;;;;;;;14.77;65.36;96438.13;4217079;28;5688;-74
2023/04/23 03:31:08;;;;;;;;;;;;;;;14.77;65.46;96439.97;4213991;28;5825;-74
2023/04/23 03:33:11;;;;;;;;;;;;;;;14.75;65.49;96429.56;4216930;28;5667;-74
2023/04/23 03:35:15;;;;;;;;;;;;;;;14.76;65.33;96430.38;4216411;28;5652;-74
2023/04/23 03:37:18;;;;;;;;;;;;;;;14.77;65.47;96427.47;4217351;28;5687;-73
2023/04/23 03:39:21;;;;;;;;;;;;;;;14.78;65.49;96429.09;4216577;28;5848;-73
2023/04/23 03:41:23;;;;;;;;;;;;;;;14.78;65.65;96429.09;4216932;28;5765;-74
2023/04/23 03:43:26;;;;;;;;;;;;;;;14.79;65.63;96428.06;4207371;28;6414;-74
2023/04/23 03:45:30;;;;;;;;;;;;;;;14.79;65.40;96429.91;4207714;28;6431;-73
2023/04/23 03:47:33;;;;;;;;;;;;;;;14.80;65.52;96426.22;4217331;28;5782;-74
2023/04/23 03:49:37;;;;;;;;;;;;;;;14.81;65.55;96430.50;4211970;28;5762;-73
2023/04/23 03:51:41;;;;;;;;;;;;;;;14.81;65.70;96427.81;4211759;28;5682;-74
2023/04/23 03:53:44;;;;;;;;;;;;;;;14.82;65.75;96434.75;4216132;28;5672;-73
2023/04/23 03:55:47;;;;;;;;;;;;;;;14.85;65.71;96432.47;4216306;28;5683;-73
2023/04/23 03:57:50;;;;;;;;;;;;;;;14.87;65.79;96434.91;4216795;28;5667;-74
2023/04/23 03:59:53;;;;;;;;;;;;;;;14.85;65.45;96437.81;4206908;28;5085;-74
2023/04/23 04:01:57;;;;;;;;;;;;;;;14.81;65.43;96430.50;4215546;28;7722;-74
2023/04/23 04:04:00;;;;;;;;;;;;;;;14.79;65.74;96429.91;4214577;28;5797;-73
2023/04/23 04:06:03;;;;;;;;;;;;;;;14.80;65.61;96427.00;4217021;28;5711;-73
2023/04/23 04:08:07;;;;;;;;;;;;;;;14.78;65.75;96420.31;4216975;28;6388;-73
2023/04/23 04:10:11;;;;;;;;;;;;;;;14.76;65.52;96414.41;4216893;28;5770;-73
2023/04/23 04:12:13;;;;;;;;;;;;;;;14.76;65.81;96419.72;4217223;28;5663;-73
2023/04/23 04:14:16;;;;;;;;;;;;;;;14.78;65.91;96423.78;4216936;28;5659;-73
2023/04/23 04:16:19;;;;;;;;;;;;;;;14.79;65.67;96416.59;4216969;28;5738;-73
2023/04/23 04:18:22;;;;;;;;;;;;;;;14.79;65.80;96424.59;4216880;28;5695;-73
2023/04/23 04:20:27;;;;;;;;;;;;;;;14.79;65.67;96425.41;4216760;28;5783;-73
2023/04/23 04:22:30;;;;;;;;;;;;;;;14.80;65.89;96419.03;4217145;28;5730;-73
2023/04/23 04:24:35;;;;;;;;;;;;;;;14.81;65.68;96417.19;4218685;28;5691;-74
2023/04/23 04:26:38;;;;;;;;;;;;;;;14.82;65.71;96424.13;4220054;28;5676;-73
2023/04/23 04:28:41;;;;;;;;;;;;;;;14.81;65.82;96417.19;4204025;28;5771;-73
2023/04/23 04:30:44;;;;;;;;;;;;;;;14.82;65.78;96418.81;4209036;28;5677;-73
2023/04/23 04:32:49;;;;;;;;;;;;;;;14.82;65.62;96421.47;4205277;28;5681;-73
2023/04/23 04:34:52;;;;;;;;;;;;;;;14.82;65.64;96416.13;4218638;28;5750;-73
2023/04/23 04:36:56;;;;;;;;;;;;;;;14.84;65.71;96417.56;4220042;28;5686;-72
2023/04/23 04:38:59;;;;;;;;;;;;;;;14.84;65.76;96422.06;4216484;28;5679;-73
2023/04/23 04:41:04;;;;;;;;;;;;;;;14.82;65.61;96416.94;4220310;28;5667;-73
2023/04/23 04:43:06;;;;;;;;;;;;;;;14.85;65.67;96415.69;4216574;28;5799;-73
2023/04/23 04:45:10;;;;;;;;;;;;;;;14.84;65.70;96408.75;4218058;28;5668;-74
2023/04/23 04:47:15;;;;;;;;;;;;;;;14.82;65.58;96400.97;4216480;28;5684;-74
2023/04/23 04:49:18;;;;;;;;;;;;;;;14.82;65.62;96397.50;4218751;28;5683;-73
2023/04/23 04:51:21;;;;;;;;;;;;;;;14.79;65.57;96398.78;4216527;28;5885;-74
2023/04/23 04:53:24;;;;;;;;;;;;;;;14.82;65.63;96400.16;4219031;28;5683;-74
2023/04/23 04:55:27;;;;;;;;;;;;;;;14.82;65.67;96392.19;4212155;28;5701;-74
2023/04/23 04:57:31;;;;;;;;;;;;;;;14.83;65.62;96393.81;4206110;28;5849;-73
2023/04/23 04:59:34;;;;;;;;;;;;;;;14.83;65.78;96393.81;4219513;28;5781;-73
2023/04/23 05:01:37;;;;;;;;;;;;;;;14.84;65.82;96395.47;4219091;28;5679;-74
2023/04/23 05:03:40;;;;;;;;;;;;;;;14.82;65.75;96400.16;4208492;28;5747;-73
2023/04/23 05:05:44;;;;;;;;;;;;;;;14.82;65.81;96395.66;4229621;28;5777;-74
2023/04/23 05:07:46;;;;;;;;;;;;;;;14.82;65.62;96393.00;4208760;28;6406;-73
2023/04/23 05:09:49;;;;;;;;;;;;;;;14.85;65.90;96397.06;4218782;28;5852;-73
2023/04/23 05:11:52;;;;;;;;;;;;;;;14.85;65.82;96392.56;4218543;28;5772;-73
2023/04/23 05:13:56;;;;;;;;;;;;;;;14.85;65.78;96386.44;4203018;28;5961;-74
2023/04/23 05:16:00;;;;;;;;;;;;;;;14.88;65.84;96385.97;4210296;28;5758;-73
2023/04/23 05:18:04;;;;;;;;;;;;;;;14.89;65.60;96387.59;4211286;28;5672;-73
2023/04/23 05:20:09;;;;;;;;;;;;;;;14.91;65.62;96382.03;4217102;28;5663;-73
2023/04/23 05:22:12;;;;;;;;;;;;;;;14.90;65.59;96383.88;4217924;28;5684;-72
2023/04/23 05:24:15;;;;;;;;;;;;;;;14.92;65.65;96381.78;4217646;28;5682;-73
2023/04/23 05:26:18;;;;;;;;;;;;;;;14.92;65.75;96381.78;4218085;28;5702;-73
2023/04/23 05:28:21;;;;;;;;;;;;;;;14.93;65.78;96382.59;4217298;28;5766;-73
2023/04/23 05:30:25;;;;;;;;;;;;;;;14.95;65.83;96380.50;4208534;28;5132;-73
2023/04/23 05:32:28;;;;;;;;;;;;;;;14.97;65.91;96376.59;4219020;28;5829;-73
2023/04/23 05:34:31;;;;;;;;;;;;;;;14.98;65.88;96386.22;4217744;28;5783;-73
2023/04/23 05:36:34;;;;;;;;;;;;;;;15.00;65.99;96384.13;4218152;28;5668;-73
2023/04/23 05:38:36;;;;;;;;;;;;;;;15.01;65.90;96375.09;4218008;28;5869;-73
2023/04/23 05:40:39;;;;;;;;;;;;;;;15.02;65.90;96375.91;4218392;28;5672;-73
2023/04/23 05:42:42;;;;;;;;;;;;;;;15.02;65.85;96376.72;4219063;28;5687;-73
2023/04/23 05:44:45;;;;;;;;;;;;;;;15.03;65.97;96377.50;4217937;28;5787;-73
2023/04/23 05:46:49;;;;;;;;;;;;;;;15.04;65.75;96366.63;4218820;28;5671;-73
2023/04/23 05:48:52;;;;;;;;;;;;;;;15.06;65.95;96377.88;4218345;28;5683;-73
2023/04/23 05:50:55;;;;;;;;;;;;;;;15.09;65.96;96365.97;4217118;28;5675;-74
2023/04/23 05:52:58;;;;;;;;;;;;;;;15.10;65.73;96363.06;4217226;28;5663;-73
2023/04/23 05:55:01;;;;;;;;;;;;;;;15.11;65.69;96364.69;4218084;28;5652;-73
2023/04/23 05:57:04;;;;;;;;;;;;;;;15.12;65.92;96357.50;4201922;28;5700;-73
2023/04/23 05:59:07;;;;;;;;;;;;;;;15.14;66.01;96358.88;4207105;28;5667;-73
2023/04/23 06:01:10;;;;;;;;;;;;;;;15.16;65.95;96353.31;4203568;28;5776;-73
2023/04/23 06:03:15;;;;;;;;;;;;;;;15.18;65.92;96356.59;4219796;28;5734;-73
2023/04/23 06:05:18;;;;;;;;;;;;;;;15.20;65.85;96356.34;4217845;28;5647;-73
2023/04/23 06:07:21;;;;;;;;;;;;;;;15.23;65.74;96355.88;4219484;28;5655;-73
2023/04/23 06:09:24;;;;;;;;;;;;;;;15.24;65.65;96346.84;4217939;28;6274;-71
2023/04/23 06:11:27;;;;;;;;;;;;;;;15.30;65.58;96349.41;4216794;28;5679;-73
2023/04/23 06:13:30;;;;;;;;;;;;;;;15.35;65.36;96344.16;4215787;28;5645;-72
2023/04/23 06:15:33;;;;;;;;;;;;;;;15.39;65.62;96344.50;4217827;28;5667;-73
2023/04/23 06:17:36;;;;;;;;;;;;;;;15.40;65.40;96346.13;4201617;28;6031;-73
2023/04/23 06:19:41;;;;;;;;;;;;;;;15.42;65.50;96346.72;4210344;28;7721;-73
2023/04/23 06:21:44;;;;;;;;;;;;;;;15.44;65.59;96349.94;4216357;28;5762;-73
2023/04/23 06:23:47;;;;;;;;;;;;;;;15.46;65.45;96355.84;4215245;28;5680;-73
2023/04/23 06:25:50;;;;;;;;;;;;;;;15.47;65.48;96346.81;4215483;28;5762;-73
2023/04/23 06:27:53;;;;;;;;;;;;;;;15.49;65.60;96355.38;4216637;28;5729;-72
2023/04/23 06:29:56;;;;;;;;;;;;;;;15.50;65.40;96351.66;4213889;28;5122;-72
2023/04/23 06:32:03;;;;;;;;;;;;;;;15.44;65.27;96348.09;4213818;28;5687;-73
2023/04/23 06:34:06;;;;;;;;;;;;;;;15.44;65.40;96352.63;4213451;28;5073;-73
2023/04/23 06:36:10;;;;;;;;;;;;;;;15.43;65.44;96356.31;4216392;28;6553;-73
2023/04/23 06:38:13;;;;;;;;;;;;;;;15.43;65.54;96351.00;4215909;28;5831;-72
2023/04/23 06:40:16;;;;;;;;;;;;;;;15.41;65.41;96351.22;4215647;28;5671;-74
2023/04/23 06:42:19;;;;;;;;;;;;;;;15.40;65.46;96346.94;4210771;28;6517;-73
2023/04/23 06:44:22;;;;;;;;;;;;;;;15.40;65.33;96348.78;4215207;28;5651;-73
2023/04/23 06:46:25;;;;;;;;;;;;;;;15.39;65.29;96342.63;4212072;28;5769;-73
2023/04/23 06:48:27;;;;;;;;;;;;;;;15.38;65.28;96335.69;4217988;28;5754;-73
2023/04/23 06:50:30;;;;;;;;;;;;;;;15.36;65.36;96339.66;4213308;28;5757;-72
2023/04/23 06:52:35;;;;;;;;;;;;;;;15.38;65.21;96332.22;4215829;28;5744;-73
2023/04/23 06:54:38;;;;;;;;;;;;;;;15.37;65.38;96342.06;4212640;28;5901;-73
2023/04/23 06:56:41;;;;;;;;;;;;;;;15.41;65.34;96331.78;4215486;28;5773;-73
2023/04/23 06:58:44;;;;;;;;;;;;;;;15.45;65.16;96340.91;4214567;28;6438;-73
2023/04/23 07:00:47;;;;;;;;;;;;;;;15.51;65.09;96337.28;4216008;28;5673;-72
2023/04/23 07:02:50;;;;;;;;;;;;;;;15.55;65.01;96327.81;4216470;28;5720;-73
2023/04/23 07:04:53;;;;;;;;;;;;;;;15.56;65.12;96331.28;4216467;28;5873;-72
2023/04/23 07:06:56;;;;;;;;;;;;;;;15.58;64.74;96327.31;4216478;28;5153;-73
2023/04/23 07:09:01;;;;;;;;;;;;;;;15.61;65.08;96321.53;4216276;28;7670;-73
2023/04/23 07:11:04;;;;;;;;;;;;;;;15.65;64.90;96322.72;4215304;28;5663;-73
2023/04/23 07:13:07;;;;;;;;;;;;;;;15.69;64.78;96329.19;4214771;28;5674;-74
2023/04/23 07:15:10;;;;;;;;;;;;;;;15.71;64.92;96329.75;4217103;28;5761;-74
2023/04/23 07:17:13;;;;;;;;;;;;;;;15.71;64.71;96327.09;4212490;28;5857;-74
2023/04/23 07:19:16;;;;;;;;;;;;;;;15.70;64.62;96324.66;4208892;28;5771;-75
2023/04/23 07:21:19;;;;;;;;;;;;;;;15.71;64.67;96327.09;4204646;28;5743;-74
2023/04/23 07:23:22;;;;;;;;;;;;;;;15.70;64.69;96328.13;4213905;28;5913;-72
2023/04/23 07:25:27;;;;;;;;;;;;;;;15.75;64.71;96337.28;4203567;28;5799;-73
2023/04/23 07:27:29;;;;;;;;;;;;;;;15.75;64.50;96324.78;4207416;28;5795;-73
2023/04/23 07:29:33;;;;;;;;;;;;;;;15.78;64.34;96320.81;4215911;28;5870;-74
2023/04/23 07:31:40;;;;;;;;;;;;;;;15.80;64.27;96330.19;4217567;28;5774;-74
2023/04/23 07:33:43;;;;;;;;;;;;;;;15.78;64.48;96320.81;4217291;28;5969;-74
2023/04/23 07:35:49;;;;;;;;;;;;;;;15.74;64.23;96320.47;4217000;28;8588;-73
2023/04/23 07:37:54;;;;;;;;;;;;;;;15.69;64.13;96318.50;4216592;28;5755;-74
2023/04/23 07:39:59;;;;;;;;;;;;;;;15.65;64.33;96317.38;4208738;28;5663;-74
2023/04/23 07:42:05;;;;;;;;;;;;;;;15.64;64.33;96307.78;4207431;28;5094;-74
2023/04/23 07:44:08;;;;;;;;;;;;;;;15.59;64.26;96310.28;4213419;28;6454;-73
2023/04/23 07:46:13;;;;;;;;;;;;;;;15.63;64.34;96319.47;4215418;28;5685;-74
2023/04/23 07:48:17;;;;;;;;;;;;;;;15.61;64.24;96316.22;4215953;28;5747;-73
2023/04/23 07:50:20;;;;;;;;;;;;;;;15.64;64.35;96307.78;4210305;28;6372;-75
2023/04/23 07:52:23;;;;;;;;;;;;;;;15.65;64.31;96304.06;4216641;28;5749;-74
2023/04/23 07:54:28;;;;;;;;;;;;;;;15.65;64.30;96292.59;4215955;28;6359;-74
2023/04/23 07:56:35;;;;;;;;;;;;;;;15.69;64.36;96297.19;4217610;28;5663;-74
2023/04/23 07:58:41;;;;;;;;;;;;;;;15.70;64.40;96298.81;4208675;28;5865;-74
2023/04/23 08:00:45;;;;;;;;;;;;;;;15.71;64.36;96300.44;4214496;28;5795;-74
2023/04/23 08:02:47;;;;;;;;;;;;;;;15.71;64.05;96295.09;4211367;28;5788;-74
2023/04/23 08:04:51;;;;;;;;;;;;;;;15.73;64.20;96298.34;4215673;28;5747;-74
2023/04/23 08:06:54;;;;;;;;;;;;;;;15.75;64.06;96294.66;4212908;28;5902;-74
2023/04/23 08:08:57;;;;;;;;;;;;;;;15.72;64.29;96291.38;4218789;28;5675;-75
2023/04/23 08:11:00;;;;;;;;;;;;;;;15.72;64.24;96296.72;4215010;28;5701;-75
2023/04/23 08:13:03;;;;;;;;;;;;;;;15.75;64.20;96297.31;4218416;28;5766;-75
2023/04/23 08:15:08;;;;;;;;;;;;;;;15.75;64.20;96297.31;4212052;28;5856;-75
2023/04/23 08:17:11;;;;;;;;;;;;;;;15.72;64.15;96296.72;4215981;28;5910;-75
2023/04/23 08:19:14;;;;;;;;;;;;;;;15.71;64.11;96304.94;4209947;28;5830;-74
2023/04/23 08:21:17;;;;;;;;;;;;;;;15.68;64.15;96300.91;4212357;28;5795;-74
2023/04/23 08:23:20;;;;;;;;;;;;;;;15.69;64.17;96297.19;4217538;28;5836;-74
2023/04/23 08:25:23;;;;;;;;;;;;;;;15.69;64.21;96299.06;4218884;28;5687;-73
2023/04/23 08:27:26;;;;;;;;;;;;;;;15.66;64.18;96297.69;4213646;28;5735;-73
2023/04/23 08:29:29;;;;;;;;;;;;;;;15.66;64.09;96303.00;4222214;28;5111;-73
2023/04/23 08:31:34;;;;;;;;;;;;;;;15.67;64.21;96293.16;4225104;28;8393;-74
2023/04/23 08:33:37;;;;;;;;;;;;;;;15.67;64.20;96298.50;4218646;28;5883;-74
2023/04/23 08:35:40;;;;;;;;;;;;;;;15.68;64.02;96300.09;4214296;28;5781;-75
2023/04/23 08:37:44;;;;;;;;;;;;;;;15.70;64.00;96292.69;4215414;28;5679;-74
2023/04/23 08:39:47;;;;;;;;;;;;;;;15.72;64.02;96293.25;4214416;28;5774;-75
2023/04/23 08:41:54;;;;;;;;;;;;;;;15.70;64.18;96282.03;4208962;28;6768;-76
2023/04/23 08:44:12;;;;;;;;;;;;;;;15.73;63.93;96293.00;4212659;28;5909;-75
2023/04/23 08:46:17;;;;;;;;;;;;;;;15.77;63.83;96298.69;4204752;28;5883;-74
2023/04/23 08:48:22;;;;;;;;;;;;;;;15.81;63.91;96301.69;4211821;28;6856;-75
2023/04/23 08:50:26;;;;;;;;;;;;;;;15.81;63.73;96299.00;4207336;28;6497;-74
2023/04/23 08:52:33;;;;;;;;;;;;;;;15.80;63.79;96292.06;4205919;28;5713;-74
2023/04/23 08:54:40;;;;;;;;;;;;;;;15.81;63.59;96288.34;4207287;28;5758;-74
2023/04/23 08:56:45;;;;;;;;;;;;;;;15.81;63.51;96289.16;4208628;28;5828;-74
2023/04/23 08:58:50;;;;;;;;;;;;;;;15.81;63.49;96291.00;4211477;28;5772;-74
2023/04/23 09:00:55;;;;;;;;;;;;;;;15.86;63.53;96293.78;4213266;28;5886;-74
2023/04/23 09:02:58;;;;;;;;;;;;;;;15.87;63.48;96290.06;4206565;28;5929;-73
2023/04/23 09:05:04;;;;;;;;;;;;;;;15.89;63.56;96282.66;4212869;28;7817;-74
2023/04/23 09:07:10;;;;;;;;;;;;;;;15.89;63.42;96279.97;4208503;28;5820;-74
2023/04/23 09:09:16;;;;;;;;;;;;;;;15.90;63.24;96282.41;4204393;28;5829;-76
2023/04/23 09:11:20;;;;;;;;;;;;;;;15.91;63.30;96277.88;4203290;28;5685;-75
2023/04/23 09:13:23;;;;;;;;;;;;;;;15.92;63.17;96280.31;4210499;28;5757;-74
2023/04/23 09:15:27;;;;;;;;;;;;;;;15.95;63.22;96268.34;4203286;28;6599;-74
2023/04/23 09:17:34;;;;;;;;;;;;;;;15.99;63.15;96264.19;4206081;28;6465;-74
2023/04/23 09:19:40;;;;;;;;;;;;;;;16.04;63.13;96266.91;4207481;28;5799;-74
2023/04/23 09:21:46;;;;;;;;;;;;;;;16.06;63.04;96259.47;4206631;28;5911;-73
2023/04/23 09:23:52;;;;;;;;;;;;;;;16.08;62.93;96262.72;4212954;28;5778;-74
2023/04/23 09:25:57;;;;;;;;;;;;;;;16.11;62.87;96261.44;4209089;28;5813;-74
2023/04/23 09:28:01;;;;;;;;;;;;;;;16.13;62.86;96268.16;4213949;28;5691;-74
2023/04/23 09:30:06;;;;;;;;;;;;;;;16.16;62.95;96269.50;4212649;28;5881;-74
2023/04/23 09:32:10;;;;;;;;;;;;;;;16.16;62.75;96266.84;4214821;28;5757;-75
2023/04/23 09:34:15;;;;;;;;;;;;;;;16.15;62.44;96257.22;4215908;28;5758;-74
2023/04/23 09:36:21;;;;;;;;;;;;;;;16.17;62.44;96265.78;4220355;28;5758;-74
2023/04/23 09:38:25;;;;;;;;;;;;;;;16.17;62.50;96260.47;4213550;28;5766;-74
2023/04/23 09:40:31;;;;;;;;;;;;;;;16.17;62.38;96258.59;4206766;28;5823;-75
2023/04/23 09:42:38;;;;;;;;;;;;;;;16.21;62.16;96262.44;4210165;28;5684;-75
2023/04/23 09:44:44;;;;;;;;;;;;;;;16.19;62.31;96247.69;4205933;28;5693;-75
2023/04/23 09:46:50;;;;;;;;;;;;;;;16.24;62.09;96256.59;4211111;28;5679;-75
2023/04/23 09:48:58;;;;;;;;;;;;;;;16.26;61.80;96257.16;4209125;28;6024;-75
2023/04/23 09:51:02;;;;;;;;;;;;;;;16.23;61.83;96252.31;4210108;28;5733;-75
2023/04/23 09:53:06;;;;;;;;;;;;;;;16.26;61.52;96254.50;4215125;28;5655;-75
2023/04/23 09:55:10;;;;;;;;;;;;;;;16.27;61.83;96256.09;4215144;28;5741;-73
2023/04/23 09:57:14;;;;;;;;;;;;;;;16.28;61.70;96255.06;4215654;28;5668;-74
2023/04/23 09:59:21;;;;;;;;;;;;;;;16.32;61.57;96250.06;4214215;28;5731;-73
2023/04/23 10:01:45;;;;;;;;;;;;;;;16.36;61.35;96242.38;4216191;28;5766;-73
2023/04/23 10:03:53;;;;;;;;;;;;;;;16.38;61.42;96243.75;4212363;28;5765;-73
2023/04/23 10:05:57;;;;;;;;;;;;;;;16.40;61.35;96246.97;4209248;28;5877;-73
2023/04/23 10:08:06;;;;;;;;;;;;;;;16.39;61.30;96239.22;4216760;28;5672;-74
2023/04/23 10:10:11;;;;;;;;;;;;;;;16.39;61.15;96239.22;4215371;28;5847;-74
2023/04/23 10:12:14;;;;;;;;;;;;;;;16.42;61.18;96236.88;4211786;28;5675;-74
2023/04/23 10:14:21;;;;;;;;;;;;;;;16.46;61.04;96237.22;4207506;28;5791;-75
2023/04/23 10:16:24;;;;;;;;;;;;;;;16.50;60.81;96241.00;4209590;28;5781;-75
2023/04/23 10:18:40;;;;;;;;;;;;;;;16.55;60.94;96235.75;4204254;28;5783;-74
2023/04/23 10:20:43;;;;;;;;;;;;;;;16.58;60.70;96224.56;4205902;28;6571;-70
2023/04/23 10:22:46;;;;;;;;;;;;;;;16.64;60.80;96228.13;4213756;28;5655;-68
2023/04/23 10:24:54;;;;;;;;;;;;;;;16.72;60.55;96219.72;4204727;28;7272;-75
2023/04/23 10:27:01;;;;;;;;;;;;;;;16.75;60.38;96216.56;4214322;28;6390;-78
2023/04/23 10:29:05;;;;;;;;;;;;;;;16.81;60.44;96216.41;4215424;28;5543;-75
2023/04/23 10:31:09;;;;;;;;;;;;;;;16.89;60.27;96212.50;4212807;28;7726;-76
2023/04/23 10:33:12;;;;;;;;;;;;;;;16.99;60.05;96220.66;4211052;28;7881;-78
2023/04/23 10:35:31;;;;;;;;;;;;;;;17.05;60.06;96219.66;4215278;28;7172;-79
2023/04/23 10:37:35;;;;;;;;;;;;;;;17.06;59.81;96223.94;4213766;28;5105;-81
2023/04/23 10:39:38;;;;;;;;;;;;;;;17.07;59.84;96222.06;4212097;28;5663;-76
2023/04/23 10:41:43;;;;;;;;;;;;;;;17.08;59.81;96211.13;4215285;28;6466;-78
2023/04/23 10:43:47;;;;;;;;;;;;;;;17.14;59.77;96209.34;4215525;28;5846;-78
2023/04/23 10:45:50;;;;;;;;;;;;;;;17.17;59.55;96211.50;4209579;28;6474;-79
2023/04/23 10:47:55;;;;;;;;;;;;;;;17.18;59.50;96207.78;4214771;28;5864;-76
2023/04/23 10:50:17;;;;;;;;;;;;;;;17.22;59.47;96198.22;4198527;28;5631;-78
2023/04/23 10:52:20;;;;;;;;;;;;;;;17.30;59.19;96204.97;4215376;28;6411;-76
2023/04/23 10:54:31;;;;;;;;;;;;;;;17.36;59.17;96204.81;4213497;28;5802;-79